createdAt,value
2018-02-25T00:02:25.300Z,55.10
2018-02-25T00:04:52.902Z,55.20
2018-02-25T00:07:20.453Z,55.30
2018-02-25T00:09:47.998Z,55.00
2018-02-25T00:12:15.570Z,55.20
2018-02-25T00:14:43.135Z,55.60
2018-02-25T00:17:10.712Z,55.40
2018-02-25T00:19:38.271Z,55.80
2018-02-25T00:22:05.810Z,55.70
2018-02-25T00:24:33.398Z,55.70
2018-02-25T00:27:00.958Z,55.80
2018-02-25T00:29:29.310Z,55.30
2018-02-25T00:31:56.864Z,55.10
2018-02-25T00:34:24.416Z,55.70
2018-02-25T00:36:51.987Z,56.40
2018-02-25T00:39:19.539Z,56.10
2018-02-25T00:41:47.116Z,56.90
2018-02-25T00:44:20.867Z,56.30
2018-02-25T00:46:48.448Z,56.10
2018-02-25T00:49:16.009Z,56.00
2018-02-25T00:51:43.561Z,56.10
2018-02-25T00:54:11.126Z,56.00
2018-02-25T00:56:38.676Z,56.40
2018-02-25T00:59:06.246Z,56.20
2018-02-25T01:01:33.800Z,56.70
2018-02-25T01:04:01.350Z,56.30
2018-02-25T01:06:28.914Z,56.60
2018-02-25T01:08:56.460Z,56.40
2018-02-25T01:11:24.010Z,56.50
2018-02-25T01:13:51.571Z,56.50
2018-02-25T01:16:19.887Z,56.10
2018-02-25T01:18:47.444Z,56.10
2018-02-25T01:21:15.027Z,56.90
2018-02-25T01:23:42.579Z,56.80
2018-02-25T01:26:10.143Z,56.70
2018-02-25T01:28:38.479Z,56.60
2018-02-25T01:31:06.019Z,56.50
2018-02-25T01:33:34.334Z,57.10
2018-02-25T01:36:15.879Z,57.10
2018-02-25T01:38:44.233Z,56.90
2018-02-25T01:41:11.825Z,56.90
2018-02-25T01:43:40.140Z,57.40
2018-02-25T01:46:07.706Z,57.30
2018-02-25T01:48:35.292Z,57.30
2018-02-25T01:51:04.362Z,57.60
2018-02-25T01:53:31.906Z,57.90
2018-02-25T01:55:59.488Z,57.80
2018-02-25T01:58:27.041Z,57.80
2018-02-25T02:00:54.583Z,57.80
2018-02-25T02:03:22.163Z,58.00
2018-02-25T02:05:49.710Z,58.00
2018-02-25T02:08:17.295Z,58.10
2018-02-25T02:10:44.844Z,59.60
2018-02-25T02:13:12.386Z,58.70
2018-02-25T02:15:39.954Z,58.90
2018-02-25T02:18:07.518Z,59.20
2018-02-25T02:20:35.116Z,59.00
2018-02-25T02:23:02.667Z,59.20
2018-02-25T02:25:30.978Z,59.70
2018-02-25T02:27:59.333Z,60.00
2018-02-25T02:30:26.891Z,60.00
2018-02-25T02:32:54.449Z,60.10
2018-02-25T02:35:22.023Z,60.30
2018-02-25T02:37:49.558Z,60.70
2018-02-25T02:40:17.869Z,60.40
2018-02-25T02:42:45.443Z,60.40
2018-02-25T02:45:13.760Z,60.70
2018-02-25T02:47:41.314Z,60.70
2018-02-25T02:50:08.900Z,60.90
2018-02-25T02:52:36.455Z,61.30
2018-02-25T02:55:04.040Z,61.20
2018-02-25T02:57:31.593Z,61.30
2018-02-25T02:59:59.147Z,61.40
2018-02-25T03:02:26.738Z,62.10
2018-02-25T03:04:55.061Z,61.70
2018-02-25T03:07:22.634Z,61.70
2018-02-25T03:09:50.182Z,62.00
2018-02-25T03:12:17.736Z,62.40
2018-02-25T03:14:45.303Z,62.10
2018-02-25T03:17:12.850Z,62.40
2018-02-25T03:19:40.401Z,62.10
2018-02-25T03:22:07.972Z,62.40
2018-02-25T03:24:35.519Z,63.30
2018-02-25T03:27:03.067Z,62.80
2018-02-25T03:29:31.423Z,62.80
2018-02-25T03:31:58.978Z,62.80
2018-02-25T03:34:42.938Z,62.90
2018-02-25T03:37:11.302Z,62.80
2018-02-25T03:39:38.862Z,62.70
2018-02-25T03:42:06.419Z,62.70
2018-02-25T03:44:33.982Z,63.00
2018-02-25T03:47:01.560Z,63.20
2018-02-25T03:49:29.904Z,63.30
2018-02-25T03:51:57.492Z,63.30
2018-02-25T03:54:25.828Z,63.70
2018-02-25T03:56:53.378Z,63.60
2018-02-25T03:59:20.956Z,64.10
2018-02-25T04:01:49.275Z,63.50
2018-02-25T04:04:17.588Z,63.60
2018-02-25T04:06:45.163Z,63.50
2018-02-25T04:09:12.707Z,63.30
2018-02-25T04:11:40.243Z,63.00
2018-02-25T04:14:08.580Z,63.60
2018-02-25T04:16:36.129Z,63.60
2018-02-25T04:19:03.698Z,63.80
2018-02-25T04:21:31.267Z,63.50
2018-02-25T04:23:58.824Z,63.80
2018-02-25T04:26:26.404Z,63.60
2018-02-25T04:28:54.725Z,63.60
2018-02-25T04:31:22.278Z,63.50
2018-02-25T04:33:49.857Z,62.90
2018-02-25T04:36:17.411Z,63.20
2018-02-25T04:38:44.976Z,63.40
2018-02-25T04:41:12.555Z,63.30
2018-02-25T04:43:40.128Z,63.80
2018-02-25T04:46:07.679Z,63.50
2018-02-25T04:48:35.267Z,63.40
2018-02-25T04:51:03.590Z,63.10
2018-02-25T04:53:31.171Z,63.00
2018-02-25T04:55:58.779Z,62.90
2018-02-25T04:58:27.095Z,62.80
2018-02-25T05:00:54.665Z,62.80
2018-02-25T05:03:22.212Z,62.60
2018-02-25T05:05:49.770Z,63.00
2018-02-25T05:08:17.357Z,63.30
2018-02-25T05:10:44.925Z,62.70
2018-02-25T05:13:12.558Z,62.50
2018-02-25T05:15:40.111Z,63.00
2018-02-25T05:18:07.779Z,62.70
2018-02-25T05:20:35.359Z,62.60
2018-02-25T05:23:02.919Z,62.50
2018-02-25T05:25:30.502Z,62.80
2018-02-25T05:27:58.055Z,62.10
2018-02-25T05:30:25.616Z,62.70
2018-02-25T05:32:53.190Z,63.00
2018-02-25T05:35:21.551Z,62.80
2018-02-25T05:37:49.156Z,62.80
2018-02-25T05:40:16.729Z,63.30
2018-02-25T05:42:44.275Z,62.70
2018-02-25T05:45:11.860Z,62.30
2018-02-25T05:47:39.427Z,62.50
2018-02-25T05:50:06.983Z,62.80
2018-02-25T05:52:34.570Z,62.80
2018-02-25T05:55:02.159Z,63.00
2018-02-25T05:57:30.510Z,62.10
2018-02-25T05:59:58.099Z,62.10
2018-02-25T06:02:26.428Z,62.90
2018-02-25T06:04:53.980Z,62.80
2018-02-25T06:07:21.560Z,63.60
2018-02-25T06:09:49.116Z,63.20
2018-02-25T06:12:16.674Z,63.20
2018-02-25T06:14:44.274Z,62.80
2018-02-25T06:17:12.598Z,62.90
2018-02-25T06:19:40.165Z,62.90
2018-02-25T06:22:07.738Z,63.20
2018-02-25T06:24:35.282Z,63.40
2018-02-25T06:27:02.861Z,63.60
2018-02-25T06:29:30.448Z,64.00
2018-02-25T06:31:58.009Z,63.70
2018-02-25T06:34:25.602Z,63.90
2018-02-25T06:36:53.157Z,63.70
2018-02-25T06:39:20.707Z,63.50
2018-02-25T06:41:49.057Z,63.40
2018-02-25T06:44:16.610Z,63.30
2018-02-25T06:46:44.163Z,63.80
2018-02-25T06:49:11.735Z,63.20
2018-02-25T06:51:39.301Z,62.90
2018-02-25T06:54:06.938Z,62.90
2018-02-25T06:56:34.484Z,61.90
2018-02-25T06:59:02.091Z,61.90
2018-02-25T07:01:29.647Z,61.50
2018-02-25T07:04:00.730Z,61.10
2018-02-25T07:09:22.986Z,61.30
2018-02-25T07:11:54.002Z,61.70
2018-02-25T07:14:22.309Z,61.20
2018-02-25T07:16:49.903Z,61.20
2018-02-25T07:19:19.408Z,60.60
2018-02-25T07:21:50.446Z,59.80
2018-02-25T07:27:16.681Z,60.90
2018-02-25T07:30:09.658Z,60.20
2018-02-25T07:32:37.199Z,60.10
2018-02-25T07:35:04.785Z,60.30
2018-02-25T07:37:32.350Z,59.40
2018-02-25T07:39:59.905Z,58.60
2018-02-25T07:42:27.534Z,59.40
2018-02-25T07:44:55.054Z,59.40
2018-02-25T07:47:23.406Z,58.70
2018-02-25T07:49:51.016Z,58.70
2018-02-25T07:52:37.882Z,58.00
2018-02-25T07:55:05.475Z,58.00
2018-02-25T07:57:33.804Z,57.00
2018-02-25T08:00:15.431Z,57.00
2018-02-25T08:02:43.739Z,57.40
2018-02-25T08:05:11.295Z,57.40
2018-02-25T08:07:38.855Z,56.70
2018-02-25T08:10:06.411Z,56.20
2018-02-25T08:12:33.995Z,55.60
2018-02-25T08:15:01.536Z,55.40
2018-02-25T08:17:29.097Z,54.20
2018-02-25T08:19:56.677Z,54.60
2018-02-25T08:22:24.218Z,54.50
2018-02-25T08:24:51.800Z,54.70
2018-02-25T08:27:19.374Z,53.60
2018-02-25T08:29:46.926Z,54.10
2018-02-25T08:32:14.503Z,53.20
2018-02-25T08:34:48.454Z,53.60
2018-02-25T08:37:16.904Z,54.20
2018-02-25T08:39:45.247Z,52.60
2018-02-25T08:42:12.795Z,52.50
2018-02-25T08:44:40.367Z,52.60
2018-02-25T08:47:07.916Z,52.40
2018-02-25T08:49:35.476Z,52.10
2018-02-25T08:52:03.054Z,52.20
2018-02-25T08:54:30.617Z,52.00
2018-02-25T08:56:58.191Z,52.20
2018-02-25T08:59:25.770Z,51.80
2018-02-25T09:01:59.431Z,51.00
2018-02-25T09:04:27.003Z,50.70
2018-02-25T09:06:54.565Z,50.40
2018-02-25T09:09:22.139Z,51.50
2018-02-25T09:11:49.684Z,49.90
2018-02-25T09:14:17.260Z,51.30
2018-02-25T09:16:44.832Z,50.70
2018-02-25T09:19:12.388Z,50.50
2018-02-25T09:21:39.944Z,49.50
2018-02-25T09:24:07.525Z,47.40
2018-02-25T09:26:35.835Z,47.40
2018-02-25T09:29:03.408Z,47.40
2018-02-25T09:31:30.986Z,47.50
2018-02-25T09:33:58.535Z,46.70
2018-02-25T09:36:26.078Z,45.30
2018-02-25T09:38:53.651Z,46.10
2018-02-25T09:41:21.242Z,45.10
2018-02-25T09:43:48.811Z,44.20
2018-02-25T09:46:28.866Z,44.50
2018-02-25T09:48:56.440Z,43.40
2018-02-25T09:51:24.754Z,44.00
2018-02-25T09:53:52.290Z,43.90
2018-02-25T09:56:20.648Z,43.10
2018-02-25T09:58:49.169Z,43.10
2018-02-25T10:01:16.737Z,42.70
2018-02-25T10:03:44.306Z,40.60
2018-02-25T10:06:11.910Z,40.90
2018-02-25T10:08:39.453Z,40.60
2018-02-25T10:11:07.064Z,40.00
2018-02-25T10:13:34.610Z,39.40
2018-02-25T10:16:02.928Z,40.00
2018-02-25T10:18:30.500Z,40.00
2018-02-25T10:20:58.091Z,39.20
2018-02-25T10:23:25.632Z,39.90
2018-02-25T10:25:53.983Z,39.30
2018-02-25T10:28:21.530Z,39.40
2018-02-25T10:30:49.086Z,40.30
2018-02-25T10:33:16.794Z,39.40
2018-02-25T10:35:44.330Z,38.40
2018-02-25T10:38:11.887Z,39.50
2018-02-25T10:40:39.468Z,38.50
2018-02-25T10:43:07.008Z,37.20
2018-02-25T10:48:22.000Z,38.50
2018-02-25T10:50:49.584Z,39.10
2018-02-25T10:53:17.120Z,38.90
2018-02-25T10:55:44.695Z,37.40
2018-02-25T10:58:12.291Z,38.20
2018-02-25T11:00:40.613Z,38.10
2018-02-25T11:03:09.107Z,38.10
2018-02-25T11:05:36.694Z,37.20
2018-02-25T11:08:04.238Z,37.30
2018-02-25T11:10:31.866Z,36.30
2018-02-25T11:12:59.407Z,35.20
2018-02-25T11:15:27.044Z,35.60
2018-02-25T11:17:54.606Z,34.90
2018-02-25T11:20:22.251Z,34.30
2018-02-25T11:22:49.846Z,34.30
2018-02-25T11:25:18.179Z,35.30
2018-02-25T11:27:45.728Z,35.30
2018-02-25T11:30:13.311Z,34.20
2018-02-25T11:32:40.862Z,36.10
2018-02-25T11:35:08.420Z,35.50
2018-02-25T11:37:35.994Z,33.50
2018-02-25T11:40:03.610Z,33.60
2018-02-25T11:42:31.199Z,34.30
2018-02-25T11:44:58.752Z,33.50
2018-02-25T11:47:26.350Z,32.50
2018-02-25T11:49:53.955Z,33.30
2018-02-25T11:52:21.502Z,32.20
2018-02-25T11:54:49.215Z,33.10
2018-02-25T11:57:16.847Z,33.80
2018-02-25T11:59:44.407Z,34.50
2018-02-25T12:02:12.016Z,34.70
2018-02-25T12:04:39.572Z,34.70
2018-02-25T12:07:07.142Z,33.90
2018-02-25T12:09:35.487Z,35.50
2018-02-25T12:12:03.093Z,35.50
2018-02-25T12:14:30.684Z,37.00
2018-02-25T12:16:58.239Z,35.90
2018-02-25T12:19:25.816Z,35.70
2018-02-25T12:21:53.399Z,35.00
2018-02-25T12:24:20.962Z,35.70
2018-02-25T12:26:48.523Z,34.80
2018-02-25T12:29:16.096Z,33.90
2018-02-25T12:31:43.682Z,35.20
2018-02-25T12:34:12.043Z,33.70
2018-02-25T12:36:39.604Z,33.70
2018-02-25T12:39:07.917Z,33.90
2018-02-25T12:41:35.494Z,33.80
2018-02-25T12:44:03.047Z,33.60
2018-02-25T12:46:30.638Z,33.10
2018-02-25T12:48:58.183Z,33.40
2018-02-25T12:51:25.751Z,34.00
2018-02-25T12:53:53.350Z,32.60
2018-02-25T12:56:22.595Z,32.80
2018-02-25T12:58:50.158Z,32.80
2018-02-25T13:01:17.754Z,32.90
2018-02-25T13:03:45.323Z,33.40
2018-02-25T13:06:12.888Z,32.00
2018-02-25T13:08:41.247Z,33.10
2018-02-25T13:11:08.812Z,33.10
2018-02-25T13:13:36.456Z,33.20
2018-02-25T13:16:04.047Z,33.90
2018-02-25T13:18:32.365Z,34.20
2018-02-25T13:20:59.976Z,34.20
2018-02-25T13:23:27.526Z,34.80
2018-02-25T13:25:55.077Z,33.20
2018-02-25T13:28:22.714Z,32.60
2018-02-25T13:30:50.281Z,34.50
2018-02-25T13:33:17.868Z,33.70
2018-02-25T13:35:45.422Z,32.90
2018-02-25T13:38:12.989Z,33.30
2018-02-25T13:40:40.586Z,32.20
2018-02-25T13:43:08.142Z,31.90
2018-02-25T13:45:36.511Z,31.10
2018-02-25T13:48:04.839Z,32.60
2018-02-25T13:50:32.423Z,32.50
2018-02-25T13:53:00.013Z,33.70
2018-02-25T13:55:28.344Z,33.20
2018-02-25T13:57:55.951Z,33.20
2018-02-25T14:00:24.295Z,31.80
2018-02-25T14:02:51.862Z,31.80
2018-02-25T14:05:19.463Z,32.00
2018-02-25T14:07:47.800Z,33.90
2018-02-25T14:10:15.356Z,33.90
2018-02-25T14:12:43.351Z,34.50
2018-02-25T14:15:10.957Z,33.60
2018-02-25T14:17:40.294Z,33.80
2018-02-25T14:20:07.870Z,33.20
2018-02-25T14:22:35.436Z,33.80
2018-02-25T14:25:03.020Z,34.00
2018-02-25T14:27:30.620Z,32.70
2018-02-25T14:29:58.194Z,30.80
2018-02-25T14:32:25.775Z,31.30
2018-02-25T14:34:54.110Z,32.40
2018-02-25T14:37:21.704Z,32.40
2018-02-25T14:39:49.292Z,34.40
2018-02-25T14:42:17.647Z,33.40
2018-02-25T14:44:45.190Z,33.40
2018-02-25T14:47:12.869Z,33.10
2018-02-25T14:49:40.439Z,32.60
2018-02-25T14:52:08.760Z,34.40
2018-02-25T14:54:36.360Z,33.80
2018-02-25T14:57:04.006Z,33.60
2018-02-25T14:59:31.530Z,34.00
2018-02-25T15:01:59.162Z,34.30
2018-02-25T15:04:27.488Z,34.90
2018-02-25T15:06:55.076Z,34.90
2018-02-25T15:09:22.629Z,35.20
2018-02-25T15:11:50.197Z,34.80
2018-02-25T15:14:17.779Z,34.90
2018-02-25T15:16:45.336Z,35.00
2018-02-25T15:19:12.922Z,34.80
2018-02-25T15:21:41.242Z,34.70
2018-02-25T15:24:09.566Z,35.50
2018-02-25T15:26:37.933Z,34.60
2018-02-25T15:29:05.488Z,34.60
2018-02-25T15:31:33.074Z,34.60
2018-02-25T15:34:01.417Z,34.80
2018-02-25T15:36:28.976Z,34.70
2018-02-25T15:38:56.572Z,34.60
2018-02-25T15:41:24.900Z,33.70
2018-02-25T15:43:52.521Z,33.70
2018-02-25T15:46:20.853Z,33.70
2018-02-25T15:48:48.410Z,33.70
2018-02-25T15:51:15.990Z,33.50
2018-02-25T15:53:43.578Z,34.60
2018-02-25T15:56:11.902Z,33.70
2018-02-25T15:58:39.518Z,33.70
2018-02-25T16:01:07.228Z,34.80
2018-02-25T16:03:34.811Z,33.90
2018-02-25T16:06:02.386Z,34.60
2018-02-25T16:08:30.740Z,35.60
2018-02-25T16:10:58.348Z,35.60
2018-02-25T16:13:25.902Z,34.40
2018-02-25T16:15:53.502Z,34.30
2018-02-25T16:18:21.077Z,33.70
2018-02-25T16:20:48.655Z,34.40
2018-02-25T16:23:16.213Z,34.10
2018-02-25T16:25:43.832Z,33.70
2018-02-25T16:28:11.380Z,33.70
2018-02-25T16:30:38.962Z,34.00
2018-02-25T16:33:06.534Z,34.10
2018-02-25T16:35:34.102Z,34.10
2018-02-25T16:38:01.690Z,34.20
2018-02-25T16:40:30.013Z,35.10
2018-02-25T16:42:57.570Z,35.10
2018-02-25T16:45:25.202Z,34.10
2018-02-25T16:47:54.300Z,34.50
2018-02-25T16:50:26.106Z,35.30
2018-02-25T16:52:53.675Z,35.30
2018-02-25T16:55:21.244Z,35.70
2018-02-25T16:57:48.823Z,36.00
2018-02-25T17:00:16.383Z,35.40
2018-02-25T17:02:43.934Z,36.10
2018-02-25T17:05:11.514Z,37.00
2018-02-25T17:07:39.836Z,35.20
2018-02-25T17:10:07.410Z,35.10
2018-02-25T17:12:34.958Z,35.20
2018-02-25T17:15:02.543Z,35.20
2018-02-25T17:17:31.956Z,34.70
2018-02-25T17:19:59.509Z,35.00
2018-02-25T17:22:27.166Z,34.90
2018-02-25T17:24:54.710Z,35.20
2018-02-25T17:27:22.866Z,36.20
2018-02-25T17:29:50.429Z,35.70
2018-02-25T17:32:17.991Z,36.00
2018-02-25T17:34:45.568Z,35.90
2018-02-25T17:37:13.116Z,36.20
2018-02-25T17:39:40.667Z,36.50
2018-02-25T17:42:08.247Z,36.50
2018-02-25T17:44:35.789Z,35.90
2018-02-25T17:47:03.353Z,35.90
2018-02-25T17:49:30.928Z,36.00
2018-02-25T17:51:58.484Z,35.90
2018-02-25T17:54:26.058Z,35.80
2018-02-25T17:56:53.623Z,36.30
2018-02-25T17:59:21.185Z,36.40
2018-02-25T18:01:48.748Z,36.50
2018-02-25T18:04:16.329Z,36.50
2018-02-25T18:06:43.907Z,36.70
2018-02-25T18:09:12.217Z,36.50
2018-02-25T18:11:39.808Z,36.50
2018-02-25T18:14:07.378Z,36.30
2018-02-25T18:16:34.935Z,36.50
2018-02-25T18:19:02.511Z,36.40
2018-02-25T18:21:30.072Z,36.70
2018-02-25T18:23:58.395Z,37.00
2018-02-25T18:26:25.995Z,37.00
2018-02-25T18:28:53.547Z,38.20
2018-02-25T18:31:21.103Z,37.90
2018-02-25T18:33:48.729Z,38.30
2018-02-25T18:36:16.287Z,38.50
2018-02-25T18:38:43.827Z,39.10
2018-02-25T18:41:12.182Z,39.30
2018-02-25T18:43:39.765Z,39.30
2018-02-25T18:46:07.357Z,39.50
2018-02-25T18:48:34.936Z,39.20
2018-02-25T18:51:02.511Z,39.70
2018-02-25T18:53:30.072Z,39.80
2018-02-25T18:55:57.642Z,39.10
2018-02-25T18:58:25.186Z,39.40
2018-02-25T19:00:52.768Z,39.40
2018-02-25T19:03:20.314Z,39.20
2018-02-25T19:05:47.896Z,39.30
2018-02-25T19:08:16.244Z,39.90
2018-02-25T19:10:43.795Z,39.80
2018-02-25T19:13:11.365Z,39.90
2018-02-25T19:15:38.916Z,40.20
2018-02-25T19:18:06.511Z,39.90
2018-02-25T19:20:34.090Z,39.90
2018-02-25T19:23:02.432Z,39.40
2018-02-25T19:25:29.991Z,39.30
2018-02-25T19:28:00.825Z,39.70
2018-02-25T19:30:28.382Z,39.50
2018-02-25T19:32:55.937Z,39.40
2018-02-25T19:35:23.554Z,38.90
2018-02-25T19:37:56.774Z,39.40
2018-02-25T19:40:30.098Z,38.80
2018-02-25T19:42:57.664Z,39.20
2018-02-25T19:45:25.244Z,39.40
2018-02-25T19:47:53.763Z,39.10
2018-02-25T19:50:21.346Z,38.90
2018-02-25T19:52:52.086Z,39.60
2018-02-25T19:55:22.963Z,39.70
2018-02-25T19:57:58.526Z,40.20
2018-02-25T20:00:40.043Z,40.50
2018-02-25T20:03:07.586Z,40.50
2018-02-25T20:05:35.130Z,40.80
2018-02-25T20:08:03.471Z,41.10
2018-02-25T20:10:31.018Z,41.10
2018-02-25T20:12:58.608Z,41.50
2018-02-25T20:15:26.151Z,41.80
2018-02-25T20:17:53.704Z,42.10
2018-02-25T20:20:21.287Z,42.70
2018-02-25T20:22:48.826Z,42.80
2018-02-25T20:25:16.418Z,43.20
2018-02-25T20:27:44.737Z,44.00
2018-02-25T20:30:12.302Z,44.00
2018-02-25T20:32:39.875Z,43.90
2018-02-25T20:35:07.423Z,43.80
2018-02-25T20:37:34.968Z,44.40
2018-02-25T20:40:02.575Z,44.80
2018-02-25T20:42:32.150Z,45.40
2018-02-25T20:45:00.731Z,45.30
2018-02-25T20:47:30.620Z,45.40
2018-02-25T20:49:58.181Z,45.20
2018-02-25T20:52:25.723Z,45.90
2018-02-25T20:54:54.067Z,46.00
2018-02-25T20:57:21.627Z,46.00
2018-02-25T20:59:49.185Z,46.20
2018-02-25T21:02:20.497Z,46.00
2018-02-25T21:04:48.107Z,46.30
2018-02-25T21:07:15.653Z,46.60
2018-02-25T21:09:44.007Z,47.10
2018-02-25T21:12:11.554Z,47.10
2018-02-25T21:14:39.107Z,46.90
2018-02-25T21:17:07.622Z,46.80
2018-02-25T21:19:35.174Z,47.40
2018-02-25T21:22:02.742Z,47.10
2018-02-25T21:24:30.310Z,47.60
2018-02-25T21:26:57.889Z,47.50
2018-02-25T21:29:25.518Z,47.40
2018-02-25T21:31:53.083Z,47.70
2018-02-25T21:34:20.656Z,47.70
2018-02-25T21:36:48.198Z,47.60
2018-02-25T21:39:15.744Z,48.20
2018-02-25T21:41:43.316Z,48.10
2018-02-25T21:44:10.873Z,48.60
2018-02-25T21:46:38.454Z,48.20
2018-02-25T21:49:06.012Z,48.40
2018-02-25T21:51:33.562Z,48.40
2018-02-25T21:54:01.151Z,48.70
2018-02-25T21:56:34.424Z,48.90
2018-02-25T21:59:07.653Z,49.30
2018-02-25T22:01:41.717Z,49.50
2018-02-25T22:04:09.307Z,49.50
2018-02-25T22:06:36.868Z,49.20
2018-02-25T22:09:04.431Z,49.60
2018-02-25T22:11:32.026Z,49.70
2018-02-25T22:14:00.343Z,50.30
2018-02-25T22:16:27.887Z,50.30
2018-02-25T22:18:55.452Z,50.50
2018-02-25T22:21:23.007Z,50.40
2018-02-25T22:23:50.586Z,50.10
2018-02-25T22:26:18.912Z,50.30
2018-02-25T22:28:47.220Z,50.40
2018-02-25T22:31:14.817Z,50.30
2018-02-25T22:33:42.375Z,50.60
2018-02-25T22:36:09.922Z,50.50
2018-02-25T22:38:37.507Z,50.60
2018-02-25T22:41:05.058Z,49.70
2018-02-25T22:43:32.616Z,49.60
2018-02-25T22:46:00.190Z,49.50
2018-02-25T22:48:27.741Z,48.70
2018-02-25T22:50:55.284Z,49.30
2018-02-25T22:53:26.550Z,49.40
2018-02-25T22:55:54.098Z,49.50
2018-02-25T22:58:21.673Z,49.80
2018-02-25T23:00:49.232Z,50.10
2018-02-25T23:03:16.803Z,49.70
2018-02-25T23:05:44.389Z,49.90
2018-02-25T23:08:11.940Z,49.70
2018-02-25T23:10:40.286Z,49.90
2018-02-25T23:13:07.829Z,49.90
2018-02-25T23:15:35.391Z,49.80
2018-02-25T23:18:02.976Z,49.50
2018-02-25T23:20:30.523Z,49.70
2018-02-25T23:22:58.077Z,50.10
2018-02-25T23:25:25.654Z,49.50
2018-02-25T23:27:53.209Z,49.90
2018-02-25T23:30:20.782Z,49.70
2018-02-25T23:32:48.365Z,49.70
2018-02-25T23:35:15.903Z,49.40
2018-02-25T23:37:43.490Z,50.40
2018-02-25T23:40:11.802Z,50.30
2018-02-25T23:42:39.346Z,50.20
2018-02-25T23:45:06.911Z,50.60
2018-02-25T23:47:35.315Z,50.60
2018-02-25T23:50:03.648Z,50.90
2018-02-25T23:52:31.199Z,50.30
2018-02-25T23:54:59.518Z,50.50
2018-02-25T23:57:27.089Z,50.40
2018-02-25T23:59:54.641Z,50.20
